Time;durP1;ratioP1;P1;durP2;ratioP2;P2;SDS_P1;SDS_P2;PMS_P1;PMS_P2;Temp;Humidity;BMP_temperature;BMP_pressure;BME280_temperature;BME280_humidity;BME280_pressure;Samples;Min_cycle;Max_cycle;Signal;HPM_P1;HPM_P2
2022/03/17 00:00:45;0.00;0.00;0.62;0.00;0.00;0.62;2.10;1.90;;;25.60;21.90;;;;;;2232451;62;20399;-52
2022/03/17 00:03:29;0.00;0.00;0.62;0.00;0.00;0.62;2.40;1.70;;;25.60;21.90;;;;;;2232084;62;20903;-51
2022/03/17 00:06:14;0.00;0.00;0.62;0.00;0.00;0.62;1.63;1.50;;;25.50;21.90;;;;;;2232002;62;20935;-50
2022/03/17 00:09:00;0.00;0.00;0.62;0.00;0.00;0.62;2.50;1.67;;;25.50;21.90;;;;;;2232215;62;20947;-53
2022/03/17 00:11:45;0.00;0.00;0.62;0.00;0.00;0.62;1.90;1.60;;;25.50;21.90;;;;;;2231581;62;20422;-53
2022/03/17 00:14:30;0.00;0.00;0.62;0.00;0.00;0.62;5.00;2.40;;;25.50;21.90;;;;;;2234466;62;20372;-52
2022/03/17 00:17:16;0.00;0.00;0.62;0.00;0.00;0.62;1.90;1.60;;;25.60;21.90;;;;;;2231715;62;20431;-51
2022/03/17 00:20:02;0.00;0.00;0.62;0.00;0.00;0.62;2.20;1.60;;;25.50;21.80;;;;;;2231377;62;20415;-52
2022/03/17 00:22:46;0.00;0.00;0.62;0.00;0.00;0.62;1.93;1.70;;;25.50;21.90;;;;;;2232081;62;20919;-52
2022/03/17 00:25:32;0.00;0.00;0.62;0.00;0.00;0.62;2.33;1.60;;;25.50;21.90;;;;;;2231574;62;20423;-57
2022/03/17 00:28:17;0.00;0.00;0.62;0.00;0.00;0.62;2.47;1.80;;;25.50;21.90;;;;;;2231729;62;20378;-56
2022/03/17 00:31:02;0.00;0.00;0.62;0.00;0.00;0.62;1.87;1.60;;;25.50;21.90;;;;;;2231836;62;20390;-53
2022/03/17 00:33:47;0.00;0.00;0.62;0.00;0.00;0.62;1.97;1.67;;;25.50;21.90;;;;;;2231158;62;20434;-53
2022/03/17 00:36:34;0.00;0.00;0.62;0.00;0.00;0.62;1.80;1.50;;;25.50;21.90;;;;;;2232042;62;20415;-52
2022/03/17 00:39:19;0.00;0.00;0.62;0.00;0.00;0.62;1.83;1.60;;;25.50;21.90;;;;;;2231537;62;20412;-55
2022/03/17 00:42:04;0.00;0.00;0.62;0.00;0.00;0.62;1.80;1.47;;;25.50;21.90;;;;;;2231651;62;20394;-53
2022/03/17 00:44:50;0.00;0.00;0.62;0.00;0.00;0.62;1.63;1.17;;;25.50;22.00;;;;;;2232092;62;20422;-55
2022/03/17 00:47:34;0.00;0.00;0.62;0.00;0.00;0.62;1.53;1.23;;;25.50;22.00;;;;;;2231601;62;20852;-51
2022/03/17 00:50:21;0.00;0.00;0.62;0.00;0.00;0.62;1.90;1.60;;;25.50;22.00;;;;;;2231408;62;20421;-53
2022/03/17 00:53:06;0.00;0.00;0.62;0.00;0.00;0.62;2.00;1.60;;;25.50;22.00;;;;;;2231937;62;20391;-55
2022/03/17 00:55:50;0.00;0.00;0.62;0.00;0.00;0.62;1.77;1.57;;;25.50;22.00;;;;;;2231270;62;21167;-55
2022/03/17 00:58:35;0.00;0.00;0.62;0.00;0.00;0.62;2.00;1.40;;;25.50;22.00;;;;;;2231360;62;20375;-53
2022/03/17 01:01:19;0.00;0.00;0.62;0.00;0.00;0.62;1.80;1.50;;;25.50;22.00;;;;;;2231625;62;20464;-56
2022/03/17 01:04:04;0.00;0.00;0.62;0.00;0.00;0.62;2.43;1.50;;;25.50;22.00;;;;;;2231585;62;20904;-53
2022/03/17 01:06:50;0.00;0.00;0.62;0.00;0.00;0.62;2.17;1.67;;;25.50;22.00;;;;;;2232114;62;20399;-54
2022/03/17 01:09:35;0.00;0.00;0.62;0.00;0.00;0.62;2.23;1.73;;;25.50;22.00;;;;;;2231856;62;20438;-58
2022/03/17 01:12:20;0.00;0.00;0.62;0.00;0.00;0.62;2.50;1.47;;;25.40;21.90;;;;;;2233919;62;20379;-52
2022/03/17 01:15:06;0.00;0.00;0.62;0.00;0.00;0.62;2.50;1.60;;;25.50;22.00;;;;;;2231976;62;20500;-52
2022/03/17 01:17:51;0.00;0.00;0.62;0.00;0.00;0.62;1.97;1.43;;;25.40;22.00;;;;;;2231363;62;20625;-58
2022/03/17 01:20:36;0.00;0.00;0.62;0.00;0.00;0.62;1.97;1.40;;;25.40;22.00;;;;;;2231918;62;20503;-53
2022/03/17 01:23:22;0.00;0.00;0.62;0.00;0.00;0.62;1.97;1.40;;;25.40;22.00;;;;;;2231821;62;20435;-57
2022/03/17 01:26:06;0.00;0.00;0.62;0.00;0.00;0.62;1.80;1.43;;;25.40;22.00;;;;;;2231001;62;20395;-52
2022/03/17 01:28:52;0.00;0.00;0.62;0.00;0.00;0.62;2.03;1.70;;;25.40;22.00;;;;;;2232054;62;20435;-54
2022/03/17 01:31:37;0.00;0.00;0.62;0.00;0.00;0.62;1.87;1.20;;;25.40;22.00;;;;;;2231398;62;20925;-53
2022/03/17 01:34:21;0.00;0.00;0.62;0.00;0.00;0.62;1.90;1.60;;;25.40;22.00;;;;;;2231562;62;20379;-53
2022/03/17 01:37:06;0.00;0.00;0.62;0.00;0.00;0.62;1.70;1.40;;;25.40;22.00;;;;;;2231778;62;20366;-52
2022/03/17 01:39:53;0.00;0.00;0.62;0.00;0.00;0.62;1.80;1.40;;;25.40;22.00;;;;;;2231454;62;20371;-52
2022/03/17 01:42:39;0.00;0.00;0.62;0.00;0.00;0.62;2.27;1.50;;;25.40;22.00;;;;;;2232451;62;20391;-54
2022/03/17 01:45:26;0.00;0.00;0.62;0.00;0.00;0.62;1.70;1.40;;;25.40;22.00;;;;;;2232625;62;20415;-52
2022/03/17 01:48:11;0.00;0.00;0.62;0.00;0.00;0.62;1.80;1.40;;;25.40;22.10;;;;;;2232111;62;20391;-52
2022/03/17 01:50:56;0.00;0.00;0.62;0.00;0.00;0.62;1.90;1.37;;;25.40;22.10;;;;;;2232360;62;20972;-55
2022/03/17 01:53:41;0.00;0.00;0.62;0.00;0.00;0.62;1.83;1.30;;;25.40;22.10;;;;;;2232099;62;20375;-53
2022/03/17 01:56:27;0.00;0.00;0.62;0.00;0.00;0.62;1.67;1.17;;;25.40;22.10;;;;;;2232353;62;20773;-56
2022/03/17 01:59:12;0.00;0.00;0.62;0.00;0.00;0.62;1.77;1.43;;;25.40;22.10;;;;;;2232152;62;21016;-52
2022/03/17 02:01:57;0.00;0.00;0.62;0.00;0.00;0.62;2.17;1.47;;;25.40;22.20;;;;;;2231647;62;20403;-53
2022/03/17 02:04:45;0.00;0.00;0.62;0.00;0.00;0.62;2.00;1.30;;;25.40;22.20;;;;;;2232424;62;20395;-56
2022/03/17 02:07:30;0.00;0.00;0.62;0.00;0.00;0.62;1.60;1.20;;;25.40;22.10;;;;;;2232425;62;20407;-54
2022/03/17 02:10:15;0.00;0.00;0.62;0.00;0.00;0.62;1.80;1.40;;;25.40;22.10;;;;;;2232522;62;20382;-56
2022/03/17 02:13:09;0.00;0.00;0.62;0.00;0.00;0.62;1.83;1.27;;;25.40;22.10;;;;;;2232951;62;20768;-54
2022/03/17 02:15:55;0.00;0.00;0.62;0.00;0.00;0.62;1.90;1.40;;;25.40;22.10;;;;;;2232348;62;20375;-56
2022/03/17 02:18:40;0.00;0.00;0.62;0.00;0.00;0.62;1.50;1.10;;;25.40;22.20;;;;;;2232264;62;20375;-54
2022/03/17 02:21:25;0.00;0.00;0.62;0.00;0.00;0.62;2.00;1.60;;;25.40;22.20;;;;;;2232493;62;20478;-54
2022/03/17 02:27:15;0.00;0.00;0.62;0.00;0.00;0.62;1.97;1.60;;;25.30;22.10;;;;;;2232446;62;20411;-56
2022/03/17 02:30:03;0.00;0.00;0.62;0.00;0.00;0.62;2.00;1.77;;;25.40;22.20;;;;;;2234814;62;20371;-58
2022/03/17 02:32:48;0.00;0.00;0.62;0.00;0.00;0.62;1.43;1.20;;;25.30;22.10;;;;;;2233111;62;20916;-53
2022/03/17 02:35:34;0.00;0.00;0.62;0.00;0.00;0.62;1.67;1.43;;;25.30;22.10;;;;;;2233303;62;20423;-59
2022/03/17 02:38:19;0.00;0.00;0.62;0.00;0.00;0.62;1.87;1.47;;;25.40;22.20;;;;;;2232501;62;20884;-56
2022/03/17 02:41:05;0.00;0.00;0.62;0.00;0.00;0.62;1.97;1.67;;;25.30;22.40;;;;;;2232750;62;20395;-54
2022/03/17 02:43:51;0.00;0.00;0.62;0.00;0.00;0.62;3.47;1.10;;;25.30;22.20;;;;;;2232529;62;20777;-54
2022/03/17 02:46:35;0.00;0.00;0.62;0.00;0.00;0.62;1.83;1.33;;;25.30;22.30;;;;;;2231816;62;20465;-53
2022/03/17 02:49:20;0.00;0.00;0.62;0.00;0.00;0.62;1.70;1.20;;;25.30;22.20;;;;;;2232195;62;20386;-53
2022/03/17 02:52:06;0.00;0.00;0.62;0.00;0.00;0.62;1.67;1.40;;;25.30;22.30;;;;;;2231972;62;20442;-52
2022/03/17 02:54:52;0.00;0.00;0.62;0.00;0.00;0.62;1.90;1.17;;;25.30;22.30;;;;;;2231926;62;20907;-52
2022/03/17 02:57:38;0.00;0.00;0.62;0.00;0.00;0.62;1.60;1.30;;;25.30;22.30;;;;;;2232364;62;20398;-57
2022/03/17 03:00:22;0.00;0.00;0.62;0.00;0.00;0.62;1.73;1.40;;;25.30;22.40;;;;;;2231774;62;20395;-55
2022/03/17 03:03:07;0.00;0.00;0.62;0.00;0.00;0.62;1.60;1.20;;;25.30;22.40;;;;;;2234231;62;20420;-52
2022/03/17 03:05:51;0.00;0.00;0.62;0.00;0.00;0.62;1.50;1.17;;;25.30;22.40;;;;;;2232200;62;20410;-53
2022/03/17 03:08:36;0.00;0.00;0.62;0.00;0.00;0.62;1.50;1.23;;;25.30;22.40;;;;;;2231893;62;20471;-52
2022/03/17 03:11:20;0.00;0.00;0.62;0.00;0.00;0.62;1.60;1.40;;;25.30;22.40;;;;;;2232261;62;20478;-52
2022/03/17 03:14:07;0.00;0.00;0.62;0.00;0.00;0.62;1.90;1.50;;;25.20;22.40;;;;;;2232165;62;20371;-54
2022/03/17 03:16:52;0.00;0.00;0.62;0.00;0.00;0.62;1.77;1.10;;;25.30;22.40;;;;;;2231897;62;20411;-52
2022/03/17 03:19:37;0.00;0.00;0.62;0.00;0.00;0.62;1.63;1.23;;;25.20;22.40;;;;;;2232165;62;20375;-52
2022/03/17 03:22:21;0.00;0.00;0.62;0.00;0.00;0.62;1.83;1.40;;;25.20;22.40;;;;;;2233854;62;20559;-52
2022/03/17 03:25:09;0.00;0.00;0.62;0.00;0.00;0.62;2.20;1.57;;;25.20;22.40;;;;;;2231890;62;20416;-55
2022/03/17 03:27:54;0.00;0.00;0.62;0.00;0.00;0.62;2.00;1.50;;;25.20;22.40;;;;;;2232269;62;20371;-55
2022/03/17 03:30:40;0.00;0.00;0.62;0.00;0.00;0.62;2.13;1.30;;;25.20;22.40;;;;;;2232531;58;20392;-55
2022/03/17 03:33:24;0.00;0.00;0.62;0.00;0.00;0.62;1.70;1.30;;;25.20;22.40;;;;;;2231971;62;20418;-54
2022/03/17 03:39:12;0.00;0.00;0.62;0.00;0.00;0.62;1.90;1.50;;;25.20;22.40;;;;;;2231624;62;20378;-57
2022/03/17 03:41:57;0.00;0.00;0.62;0.00;0.00;0.62;1.90;1.30;;;25.20;22.40;;;;;;2232311;62;20438;-53
2022/03/17 03:44:42;0.00;0.00;0.62;0.00;0.00;0.62;1.63;1.40;;;25.20;22.40;;;;;;2231777;62;20455;-52
2022/03/17 03:47:28;0.00;0.00;0.62;0.00;0.00;0.62;1.70;1.40;;;25.20;22.40;;;;;;2231285;62;20367;-54
2022/03/17 03:50:12;0.00;0.00;0.62;0.00;0.00;0.62;1.60;1.37;;;25.20;22.40;;;;;;2232061;62;20924;-57
2022/03/17 03:52:57;0.00;0.00;0.62;0.00;0.00;0.62;1.60;1.30;;;25.20;22.40;;;;;;2231910;62;20383;-52
2022/03/17 03:55:42;0.00;0.00;0.62;0.00;0.00;0.62;1.70;1.40;;;25.20;22.40;;;;;;2232038;62;20372;-52
2022/03/17 03:58:27;0.00;0.00;0.62;0.00;0.00;0.62;1.80;1.40;;;25.20;22.40;;;;;;2231688;62;20374;-56
2022/03/17 04:01:11;0.00;0.00;0.62;0.00;0.00;0.62;1.67;1.23;;;25.20;22.40;;;;;;2231502;62;20391;-54
2022/03/17 04:03:57;0.00;0.00;0.62;0.00;0.00;0.62;1.80;1.40;;;25.20;22.40;;;;;;2232125;62;20459;-52
2022/03/17 04:06:46;0.00;0.00;0.62;0.00;0.00;0.62;1.80;1.37;;;25.20;22.40;;;;;;2231815;62;20399;-51
2022/03/17 04:09:36;0.00;0.00;0.62;0.00;0.00;0.62;1.90;1.40;;;25.20;22.40;;;;;;2231803;62;20636;-52
2022/03/17 04:12:21;0.00;0.00;0.62;0.00;0.00;0.62;1.87;1.10;;;25.10;22.30;;;;;;2232021;62;20427;-55
2022/03/17 04:15:06;0.00;0.00;0.62;0.00;0.00;0.62;1.87;1.60;;;25.10;22.30;;;;;;2231892;62;20371;-55
2022/03/17 04:17:51;0.00;0.00;0.62;0.00;0.00;0.62;1.93;1.50;;;25.10;22.30;;;;;;2232217;62;20905;-53
2022/03/17 04:20:37;0.00;0.00;0.62;0.00;0.00;0.62;1.70;1.20;;;25.10;22.30;;;;;;2231924;62;21192;-55
2022/03/17 04:23:22;0.00;0.00;0.62;0.00;0.00;0.62;2.10;1.60;;;25.10;22.30;;;;;;2227936;62;20420;-52
2022/03/17 04:26:07;0.00;0.00;0.62;0.00;0.00;0.62;2.17;1.40;;;25.10;22.30;;;;;;2228401;62;20392;-53
2022/03/17 04:28:52;0.00;0.00;0.62;0.00;0.00;0.62;2.07;1.47;;;25.20;22.40;;;;;;2227688;62;20375;-57
2022/03/17 04:31:37;0.00;0.00;0.62;0.00;0.00;0.62;1.73;1.10;;;25.10;22.30;;;;;;2227817;62;20396;-55
2022/03/17 04:34:22;0.00;0.00;0.62;0.00;0.00;0.62;1.70;1.33;;;25.10;22.30;;;;;;2228276;62;21099;-50
2022/03/17 04:37:08;0.00;0.00;0.62;0.00;0.00;0.62;2.17;1.50;;;25.10;22.30;;;;;;2228310;62;20364;-56
2022/03/17 04:39:53;0.00;0.00;0.62;0.00;0.00;0.62;1.80;1.50;;;25.10;22.30;;;;;;2228171;62;20524;-54
2022/03/17 04:42:37;0.00;0.00;0.62;0.00;0.00;0.62;2.07;1.50;;;25.10;22.80;;;;;;2228345;62;20372;-57
2022/03/17 04:45:22;0.00;0.00;0.62;0.00;0.00;0.62;2.50;1.57;;;25.10;22.30;;;;;;2229557;62;20471;-51
2022/03/17 04:48:07;0.00;0.00;0.62;0.00;0.00;0.62;2.30;1.67;;;25.10;22.30;;;;;;2228137;62;20892;-51
2022/03/17 04:50:52;0.00;0.00;0.62;0.00;0.00;0.62;1.80;1.30;;;25.10;22.30;;;;;;2227437;62;20854;-57
2022/03/17 04:53:38;0.00;0.00;0.62;0.00;0.00;0.62;1.87;1.40;;;25.10;22.30;;;;;;2227869;62;20384;-54
2022/03/17 04:56:23;0.00;0.00;0.62;0.00;0.00;0.62;2.47;1.50;;;25.10;22.30;;;;;;2227997;62;20812;-54
2022/03/17 04:59:08;0.00;0.00;0.62;0.00;0.00;0.62;2.37;1.60;;;25.10;22.30;;;;;;2227585;62;20364;-54
2022/03/17 05:01:52;0.00;0.00;0.62;0.00;0.00;0.62;2.20;1.60;;;25.10;22.30;;;;;;2230029;62;20396;-53
2022/03/17 05:04:37;0.00;0.00;0.62;0.00;0.00;0.62;1.60;1.30;;;25.10;22.30;;;;;;2228103;62;20420;-51
2022/03/17 05:07:22;0.00;0.00;0.62;0.00;0.00;0.62;1.93;1.47;;;25.10;22.30;;;;;;2227232;62;20480;-49
2022/03/17 05:10:09;0.00;0.00;0.62;0.00;0.00;0.62;2.60;2.40;;;25.10;22.30;;;;;;2230090;62;20425;-54
2022/03/17 05:12:54;0.00;0.00;0.62;0.00;0.00;0.62;2.70;2.50;;;25.10;22.30;;;;;;2227557;62;20900;-53
2022/03/17 05:15:40;0.00;0.00;0.62;0.00;0.00;0.62;4.30;3.90;;;25.00;22.30;;;;;;2228348;62;20389;-52
2022/03/17 05:18:24;0.00;0.00;0.62;0.00;0.00;0.62;5.20;4.70;;;25.00;22.30;;;;;;2228820;62;20415;-53
2022/03/17 05:21:09;0.00;0.00;0.62;0.00;0.00;0.62;4.80;4.40;;;25.00;22.30;;;;;;2228714;62;20451;-51
2022/03/17 05:23:53;0.00;0.00;0.62;0.00;0.00;0.62;5.97;5.47;;;25.00;22.20;;;;;;2232346;62;20371;-51
2022/03/17 05:26:39;0.00;0.00;0.62;0.00;0.00;0.62;6.13;5.53;;;25.00;22.20;;;;;;2232436;62;20451;-52
2022/03/17 05:29:24;0.00;0.00;0.62;0.00;0.00;0.62;9.20;7.17;;;25.00;22.10;;;;;;2231928;62;20407;-59
2022/03/17 05:32:09;0.00;0.00;0.62;0.00;0.00;0.62;8.80;7.70;;;24.90;21.80;;;;;;2232841;62;20964;-52
2022/03/17 05:34:53;0.00;0.00;0.62;0.00;0.00;0.62;8.90;8.07;;;24.90;21.70;;;;;;2232661;62;20459;-58
2022/03/17 05:37:39;0.00;0.00;0.62;0.00;0.00;0.62;7.27;6.57;;;24.80;21.70;;;;;;2232720;62;20404;-50
2022/03/17 05:40:25;0.00;0.00;0.62;0.00;0.00;0.62;9.50;8.60;;;24.80;21.60;;;;;;2232633;62;20383;-53
2022/03/17 05:43:11;0.00;0.00;0.62;0.00;0.00;0.62;8.63;7.83;;;24.80;21.60;;;;;;2232363;62;20465;-52
2022/03/17 05:45:56;0.00;0.00;0.62;0.00;0.00;0.62;11.10;9.00;;;24.70;21.50;;;;;;2232312;62;20387;-54
2022/03/17 05:48:41;0.00;0.00;0.62;0.00;0.00;0.62;9.23;8.33;;;24.60;21.40;;;;;;2232585;62;20367;-52
2022/03/17 05:51:25;0.00;0.00;0.62;0.00;0.00;0.62;10.63;9.53;;;24.60;21.30;;;;;;2232016;62;20398;-52
2022/03/17 05:54:10;0.00;0.00;0.62;0.00;0.00;0.62;9.80;8.80;;;24.50;21.20;;;;;;2232846;62;20452;-56
2022/03/17 05:56:54;0.00;0.00;0.62;0.00;0.00;0.62;12.50;11.20;;;24.50;21.30;;;;;;2232826;62;20363;-54
2022/03/17 05:59:41;0.00;0.00;0.62;0.00;0.00;0.62;10.73;9.70;;;24.50;21.20;;;;;;2231899;62;20424;-52
2022/03/17 06:02:26;0.00;0.00;0.62;0.00;0.00;0.62;10.60;9.60;;;24.40;21.10;;;;;;2232859;62;20426;-54
2022/03/17 06:05:12;0.00;0.00;0.62;0.00;0.00;0.62;11.03;9.13;;;24.30;21.10;;;;;;2232560;62;20394;-53
2022/03/17 06:08:00;0.00;0.00;0.62;0.00;0.00;0.62;10.30;9.30;;;24.30;21.20;;;;;;2232418;62;20450;-52
2022/03/17 06:10:44;0.00;0.00;0.62;0.00;0.00;0.62;9.57;8.67;;;24.20;21.20;;;;;;2232569;62;20565;-53
2022/03/17 06:13:29;0.00;0.00;0.62;0.00;0.00;0.62;9.80;8.80;;;24.20;21.30;;;;;;2232354;62;20367;-54
2022/03/17 06:16:15;0.00;0.00;0.62;0.00;0.00;0.62;9.03;8.23;;;24.20;21.30;;;;;;2232635;62;20380;-55
2022/03/17 06:19:00;0.00;0.00;0.62;0.00;0.00;0.62;9.93;9.03;;;24.20;21.30;;;;;;2232407;62;20371;-54
2022/03/17 06:21:44;0.00;0.00;0.62;0.00;0.00;0.62;10.00;9.00;;;24.20;21.30;;;;;;2232237;62;20779;-53
2022/03/17 06:24:29;0.00;0.00;0.62;0.00;0.00;0.62;10.53;9.53;;;24.10;21.30;;;;;;2232699;62;20363;-53
2022/03/17 06:27:13;0.00;0.00;0.62;0.00;0.00;0.62;8.80;8.00;;;24.10;21.80;;;;;;2231849;62;20407;-55
2022/03/17 06:29:58;0.00;0.00;0.62;0.00;0.00;0.62;10.53;9.50;;;24.10;21.30;;;;;;2234242;62;20845;-60
2022/03/17 06:32:45;0.00;0.00;0.62;0.00;0.00;0.62;10.27;9.33;;;24.10;21.30;;;;;;2232772;62;20403;-60
2022/03/17 06:35:29;0.00;0.00;0.62;0.00;0.00;0.62;10.57;9.57;;;24.00;21.10;;;;;;2232318;62;20407;-61
2022/03/17 06:38:14;0.00;0.00;0.62;0.00;0.00;0.62;10.47;9.47;;;24.00;21.10;;;;;;2232093;62;20392;-59
2022/03/17 06:40:58;0.00;0.00;0.62;0.00;0.00;0.62;11.73;10.53;;;24.00;21.10;;;;;;2232094;62;20391;-59
2022/03/17 06:43:43;0.00;0.00;0.62;0.00;0.00;0.62;11.93;10.83;;;23.90;21.00;;;;;;2231666;62;20411;-58
2022/03/17 06:46:29;0.00;0.00;0.62;0.00;0.00;0.62;12.37;11.10;;;23.90;20.90;;;;;;2232178;62;20424;-60
2022/03/17 06:49:15;0.00;0.00;0.62;0.00;0.00;0.62;13.40;11.73;;;23.80;20.80;;;;;;2231815;62;20439;-60
2022/03/17 06:52:00;0.00;0.00;0.62;0.00;0.00;0.62;13.03;11.80;;;23.80;20.70;;;;;;2231892;62;20824;-58
2022/03/17 06:54:44;0.00;0.00;0.62;0.00;0.00;0.62;15.70;14.30;;;23.70;20.70;;;;;;2232652;62;20416;-60
2022/03/17 06:57:29;0.00;0.00;0.62;0.00;0.00;0.62;14.80;13.33;;;23.60;20.60;;;;;;2231811;62;20366;-60
2022/03/17 07:00:17;0.00;0.00;0.62;0.00;0.00;0.62;14.73;13.23;;;23.60;20.60;;;;;;2234054;62;20387;-57
2022/03/17 07:03:02;0.00;0.00;0.62;0.00;0.00;0.62;15.13;13.73;;;23.50;20.60;;;;;;2232319;62;20386;-56
2022/03/17 07:05:48;0.00;0.00;0.62;0.00;0.00;0.62;15.07;13.67;;;23.50;20.60;;;;;;2231574;62;20392;-59
2022/03/17 07:08:32;0.00;0.00;0.62;0.00;0.00;0.62;14.10;12.80;;;23.40;20.50;;;;;;2232175;62;20838;-59
2022/03/17 07:11:18;0.00;0.00;0.62;0.00;0.00;0.62;13.63;12.40;;;23.30;20.50;;;;;;2231819;62;20395;-59
2022/03/17 07:14:03;0.00;0.00;0.62;0.00;0.00;0.62;15.27;13.97;;;23.30;20.50;;;;;;2231863;62;20371;-52
2022/03/17 07:16:48;0.00;0.00;0.62;0.00;0.00;0.62;14.83;13.40;;;23.20;20.50;;;;;;2232352;62;20367;-50
2022/03/17 07:19:34;0.00;0.00;0.62;0.00;0.00;0.62;14.67;13.17;;;23.10;20.40;;;;;;2231747;62;20371;-53
2022/03/17 07:22:20;0.00;0.00;0.62;0.00;0.00;0.62;15.97;14.27;;;23.10;20.50;;;;;;2234246;62;20375;-51
2022/03/17 07:25:05;0.00;0.00;0.62;0.00;0.00;0.62;14.10;12.70;;;23.10;20.60;;;;;;2232347;62;20959;-52
2022/03/17 07:27:50;0.00;0.00;0.62;0.00;0.00;0.62;13.30;12.10;;;23.00;20.60;;;;;;2231614;62;20963;-57
2022/03/17 07:30:35;0.00;0.00;0.62;0.00;0.00;0.62;15.43;13.93;;;23.00;20.70;;;;;;2231868;62;20383;-53
2022/03/17 07:33:20;0.00;0.00;0.62;0.00;0.00;0.62;13.63;12.30;;;23.00;20.70;;;;;;2232053;62;20406;-53
2022/03/17 07:36:04;0.00;0.00;0.62;0.00;0.00;0.62;13.83;12.63;;;22.90;20.80;;;;;;2231745;62;20367;-50
2022/03/17 07:38:53;0.00;0.00;0.62;0.00;0.00;0.62;14.47;13.17;;;22.90;20.80;;;;;;2232075;62;20371;-51
2022/03/17 07:41:37;0.00;0.00;0.62;0.00;0.00;0.62;14.90;12.57;;;22.90;20.80;;;;;;2231698;62;20470;-57
2022/03/17 07:44:22;0.00;0.00;0.62;0.00;0.00;0.62;13.70;12.30;;;22.90;20.80;;;;;;2231831;62;20773;-60
2022/03/17 07:47:28;0.00;0.00;0.62;0.00;0.00;0.62;12.83;11.50;;;22.90;20.80;;;;;;2232071;62;20649;-51
2022/03/17 07:50:13;0.00;0.00;0.62;0.00;0.00;0.62;13.93;12.57;;;22.90;20.80;;;;;;2231258;62;20423;-51
2022/03/17 07:52:58;0.00;0.00;0.62;0.00;0.00;0.62;13.80;12.40;;;22.80;20.70;;;;;;2232237;62;20802;-51
2022/03/17 07:55:44;0.00;0.00;0.62;0.00;0.00;0.62;13.17;11.97;;;22.80;20.70;;;;;;2231820;62;20364;-54
2022/03/17 07:58:29;0.00;0.00;0.62;0.00;0.00;0.62;11.30;10.30;;;22.80;20.70;;;;;;2231726;62;20451;-53
2022/03/17 08:01:16;0.00;0.00;0.62;0.00;0.00;0.62;11.47;10.37;;;22.80;20.70;;;;;;2462360;54;20801;-52
2022/03/17 08:04:00;0.00;0.00;0.62;0.00;0.00;0.62;12.33;11.13;;;22.80;20.70;;;;;;2231651;62;20363;-57
2022/03/17 08:06:45;0.00;0.00;0.62;0.00;0.00;0.62;11.80;10.80;;;22.80;20.70;;;;;;2231880;62;20395;-57
2022/03/17 08:09:29;0.00;0.00;0.62;0.00;0.00;0.62;11.60;10.57;;;22.80;20.70;;;;;;2232290;62;20364;-52
2022/03/17 08:12:15;0.00;0.00;0.62;0.00;0.00;0.62;10.43;9.50;;;22.80;20.70;;;;;;2231893;62;20436;-56
2022/03/17 08:15:01;0.00;0.00;0.62;0.00;0.00;0.62;11.03;9.93;;;22.80;20.70;;;;;;2232186;62;20431;-53
2022/03/17 08:17:46;0.00;0.00;0.62;0.00;0.00;0.62;11.33;10.30;;;22.90;20.80;;;;;;2231714;62;20407;-58
2022/03/17 08:20:31;0.00;0.00;0.62;0.00;0.00;0.62;11.20;10.20;;;22.90;20.80;;;;;;2231608;62;20383;-59
2022/03/17 08:23:19;0.00;0.00;0.62;0.00;0.00;0.62;11.67;10.57;;;22.90;20.80;;;;;;2232011;62;20375;-60
2022/03/17 08:26:04;0.00;0.00;0.62;0.00;0.00;0.62;12.53;11.33;;;22.90;20.80;;;;;;2233836;62;20387;-59
2022/03/17 08:28:50;0.00;0.00;0.62;0.00;0.00;0.62;13.50;12.13;;;22.90;21.30;;;;;;2231620;62;20378;-60
2022/03/17 08:31:35;0.00;0.00;0.62;0.00;0.00;0.62;13.50;12.20;;;22.90;20.80;;;;;;2232010;62;20794;-60
2022/03/17 08:34:19;0.00;0.00;0.62;0.00;0.00;0.62;14.30;12.80;;;22.90;20.80;;;;;;2231781;62;20590;-60
2022/03/17 08:37:04;0.00;0.00;0.62;0.00;0.00;0.62;14.43;13.00;;;22.80;20.70;;;;;;2231766;62;20515;-60
2022/03/17 08:39:49;0.00;0.00;0.62;0.00;0.00;0.62;15.00;13.50;;;22.80;20.70;;;;;;2231901;62;20785;-59
2022/03/17 08:42:33;0.00;0.00;0.62;0.00;0.00;0.62;14.40;13.00;;;22.80;20.70;;;;;;2231858;62;20359;-58
2022/03/17 08:51:27;0.00;0.00;0.62;0.00;0.00;0.62;12.97;11.80;;;22.70;20.70;;;;;;2231559;62;20796;-56
2022/03/17 08:54:12;0.00;0.00;0.62;0.00;0.00;0.62;14.07;12.57;;;22.70;20.70;;;;;;2232051;62;20404;-52
2022/03/17 08:56:59;0.00;0.00;0.62;0.00;0.00;0.62;14.30;12.50;;;22.70;20.70;;;;;;2231316;62;20750;-52
2022/03/17 08:59:43;0.00;0.00;0.62;0.00;0.00;0.62;15.00;13.50;;;22.60;20.60;;;;;;2231699;62;20411;-57
2022/03/17 09:02:29;0.00;0.00;0.62;0.00;0.00;0.62;13.33;12.13;;;22.60;20.60;;;;;;2231674;62;21320;-60
2022/03/17 09:05:14;0.00;0.00;0.62;0.00;0.00;0.62;13.30;12.10;;;22.60;20.60;;;;;;2231717;62;20860;-57
2022/03/17 09:07:58;0.00;0.00;0.62;0.00;0.00;0.62;14.00;12.13;;;22.60;20.60;;;;;;2232034;62;20452;-55
2022/03/17 09:10:43;0.00;0.00;0.62;0.00;0.00;0.62;14.10;12.70;;;22.60;20.60;;;;;;2231385;62;20383;-54
2022/03/17 09:13:29;0.00;0.00;0.62;0.00;0.00;0.62;11.73;10.60;;;22.60;20.60;;;;;;2232017;62;20427;-57
2022/03/17 09:16:14;0.00;0.00;0.62;0.00;0.00;0.62;12.47;11.27;;;22.60;20.60;;;;;;2231922;62;20455;-59
2022/03/17 09:19:00;0.00;0.00;0.62;0.00;0.00;0.62;12.73;11.43;;;22.60;20.70;;;;;;2231181;62;20840;-57
2022/03/17 09:21:45;0.00;0.00;0.62;0.00;0.00;0.62;13.30;12.00;;;22.60;20.70;;;;;;2231909;62;20391;-56
2022/03/17 09:24:30;0.00;0.00;0.62;0.00;0.00;0.62;12.00;11.00;;;22.60;20.70;;;;;;2231289;62;20756;-58
2022/03/17 09:27:15;0.00;0.00;0.62;0.00;0.00;0.62;12.37;11.20;;;22.60;20.70;;;;;;2231655;62;20935;-58
2022/03/17 09:30:00;0.00;0.00;0.62;0.00;0.00;0.62;13.63;12.13;;;22.60;20.80;;;;;;2231552;62;20432;-54
2022/03/17 09:32:45;0.00;0.00;0.62;0.00;0.00;0.62;13.27;12.07;;;22.60;20.80;;;;;;2231828;62;20757;-52
2022/03/17 09:35:34;0.00;0.00;0.62;0.00;0.00;0.62;12.77;11.63;;;22.60;20.80;;;;;;2231641;62;20454;-55
2022/03/17 09:38:19;0.00;0.00;0.62;0.00;0.00;0.62;15.70;12.43;;;22.60;20.90;;;;;;2231984;62;20786;-53
2022/03/17 09:41:23;0.00;0.00;0.62;0.00;0.00;0.62;13.37;12.10;;;22.50;20.90;;;;;;2231187;62;20383;-55
2022/03/17 09:44:08;0.00;0.00;0.62;0.00;0.00;0.62;13.63;12.33;;;22.50;20.90;;;;;;2231922;62;20363;-51
2022/03/17 09:46:55;0.00;0.00;0.62;0.00;0.00;0.62;14.17;12.97;;;22.50;21.00;;;;;;2231442;62;20451;-52
2022/03/17 09:49:42;0.00;0.00;0.62;0.00;0.00;0.62;13.20;11.93;;;22.50;21.00;;;;;;2231332;62;20372;-56
2022/03/17 09:52:29;0.00;0.00;0.62;0.00;0.00;0.62;13.97;12.67;;;22.50;21.10;;;;;;2231857;62;20412;-54
2022/03/17 09:55:14;0.00;0.00;0.62;0.00;0.00;0.62;14.07;12.67;;;22.50;21.10;;;;;;2231553;62;20406;-54
2022/03/17 09:57:58;0.00;0.00;0.62;0.00;0.00;0.62;14.93;13.53;;;22.50;21.20;;;;;;2231634;62;20911;-52
2022/03/17 10:00:52;0.00;0.00;0.62;0.00;0.00;0.62;13.17;11.90;;;22.40;21.20;;;;;;2231665;62;20956;-55
2022/03/17 10:03:38;0.00;0.00;0.62;0.00;0.00;0.62;14.13;12.70;;;22.40;21.30;;;;;;2231859;62;20482;-59
2022/03/17 10:06:23;0.00;0.00;0.62;0.00;0.00;0.62;13.23;12.03;;;22.40;21.40;;;;;;2232391;62;21004;-56
2022/03/17 10:09:09;0.00;0.00;0.62;0.00;0.00;0.62;12.43;11.33;;;22.40;21.40;;;;;;2231960;62;20423;-56
2022/03/17 10:12:01;0.00;0.00;0.62;0.00;0.00;0.62;12.63;11.50;;;22.40;21.40;;;;;;2232048;62;20387;-59
2022/03/17 10:14:48;0.00;0.00;0.62;0.00;0.00;0.62;13.33;12.07;;;22.40;21.50;;;;;;2232494;62;20419;-56
2022/03/17 10:17:36;0.00;0.00;0.62;0.00;0.00;0.62;13.37;12.17;;;22.40;21.50;;;;;;2231555;62;20379;-56
2022/03/17 10:20:24;0.00;0.00;0.62;0.00;0.00;0.62;12.17;10.97;;;22.40;21.50;;;;;;2231940;62;20386;-57
2022/03/17 10:23:08;0.00;0.00;0.62;0.00;0.00;0.62;11.93;10.83;;;22.40;21.50;;;;;;2232334;62;20404;-58
2022/03/17 10:25:56;0.00;0.00;0.62;0.00;0.00;0.62;13.27;12.03;;;22.40;21.50;;;;;;2231814;62;20422;-56
2022/03/17 10:28:41;0.00;0.00;0.62;0.00;0.00;0.62;12.87;11.67;;;22.40;21.60;;;;;;2232397;62;20418;-56
2022/03/17 10:31:25;0.00;0.00;0.62;0.00;0.00;0.62;13.53;12.20;;;22.40;21.60;;;;;;2232021;62;20415;-57
2022/03/17 10:34:10;0.00;0.00;0.62;0.00;0.00;0.62;12.60;11.40;;;22.40;21.70;;;;;;2232132;62;20416;-55
2022/03/17 10:37:10;0.00;0.00;0.62;0.00;0.00;0.62;11.90;10.70;;;22.40;21.70;;;;;;2232457;62;20504;-57
2022/03/17 10:39:58;0.00;0.00;0.62;0.00;0.00;0.62;12.67;11.47;;;22.40;21.80;;;;;;2231677;62;20376;-57
2022/03/17 10:42:44;0.00;0.00;0.62;0.00;0.00;0.62;11.67;10.57;;;22.40;22.30;;;;;;2232423;62;20852;-57
2022/03/17 10:45:29;0.00;0.00;0.62;0.00;0.00;0.62;11.70;10.60;;;22.40;21.80;;;;;;2232468;62;20868;-58
2022/03/17 10:48:13;0.00;0.00;0.62;0.00;0.00;0.62;10.80;9.80;;;22.40;21.80;;;;;;2232169;62;20864;-59
2022/03/17 10:50:58;0.00;0.00;0.62;0.00;0.00;0.62;11.37;10.30;;;22.40;21.90;;;;;;2232327;62;20402;-56
2022/03/17 10:53:42;0.00;0.00;0.62;0.00;0.00;0.62;11.50;10.50;;;22.40;21.90;;;;;;2232017;62;20367;-57
2022/03/17 10:56:27;0.00;0.00;0.62;0.00;0.00;0.62;9.27;8.47;;;22.40;21.90;;;;;;2231546;62;20439;-59
2022/03/17 10:59:17;0.00;0.00;0.62;0.00;0.00;0.62;8.77;7.97;;;22.40;21.90;;;;;;2232298;62;20379;-58